< < Back
Terminal Aerodrome Forecast


Current Version              Previous Versions:   1  2  3  4  5  6  7  8  9  

Terminal Aerodrome Forecast

987
FTUS42 KMLB 062323
TAFDAB
TAF
KDAB 062323Z 0700/0724 36014G22KT 2SM BR OVC006
      TEMPO 0700/0701 -RA BKN006 OVC012
     FM070600 36013G19KT P6SM OVC004
     FM071400 01013KT P6SM FEW008 OVC025
     FM072000 03012KT P6SM SCT020 BKN030=



Latest METAR

667
SAUS80 KWBC 070400
MTRDAB
METAR KDAB 070353Z 35010KT 1 1/2SM BR OVC007 11/10 A3033 RMK AO2 SFC VIS
3 SLP269 T01110100


USA.gov is the U.S. government's official web portal to all federal, state and local government web resources and services.